createdAt,value
2019-04-21T00:01:12.650Z,15.60
2019-04-21T00:03:50.158Z,15.60
2019-04-21T00:06:36.884Z,15.60
2019-04-21T00:09:11.449Z,15.60
2019-04-21T00:11:40.785Z,15.60
2019-04-21T00:14:05.674Z,15.60
2019-04-21T00:16:32.224Z,15.60
2019-04-21T00:19:17.364Z,15.60
2019-04-21T00:21:49.233Z,15.60
2019-04-21T00:24:28.973Z,15.60
2019-04-21T00:27:05.217Z,15.60
2019-04-21T00:29:46.893Z,15.60
2019-04-21T00:32:06.757Z,15.60
2019-04-21T00:34:23.992Z,15.60
2019-04-21T00:37:05.793Z,15.60
2019-04-21T00:39:55.802Z,15.60
2019-04-21T00:42:19.549Z,15.60
2019-04-21T00:44:45.825Z,15.60
2019-04-21T00:47:27.981Z,15.70
2019-04-21T00:49:56.522Z,15.60
2019-04-21T00:52:58.138Z,15.50
2019-04-21T00:57:45.256Z,15.60
2019-04-21T01:00:20.354Z,15.60
2019-04-21T01:02:52.962Z,15.50
2019-04-21T01:05:37.457Z,15.50
2019-04-21T01:07:46.978Z,15.50
2019-04-21T01:10:15.017Z,15.50
2019-04-21T01:13:00.533Z,15.40
2019-04-21T01:15:37.269Z,15.40
2019-04-21T01:17:59.052Z,15.40
2019-04-21T01:20:17.493Z,15.30
2019-04-21T01:22:46.203Z,15.30
2019-04-21T01:25:27.381Z,15.30
2019-04-21T01:28:06.376Z,15.30
2019-04-21T01:30:45.683Z,15.30
2019-04-21T01:33:17.353Z,15.20
2019-04-21T01:35:48.468Z,15.20
2019-04-21T01:38:21.687Z,15.20
2019-04-21T01:40:52.706Z,15.10
2019-04-21T01:43:24.885Z,15.10
2019-04-21T01:45:53.558Z,15.10
2019-04-21T01:48:28.383Z,15.10
2019-04-21T01:50:58.174Z,15.00
2019-04-21T01:53:38.208Z,15.00
2019-04-21T01:56:21.699Z,15.00
2019-04-21T01:58:40.506Z,15.00
2019-04-21T02:01:24.231Z,15.00
2019-04-21T02:03:56.968Z,14.90
2019-04-21T02:06:37.803Z,14.80
2019-04-21T02:09:02.235Z,14.80
2019-04-21T02:11:39.069Z,14.80
2019-04-21T02:14:23.777Z,14.80
2019-04-21T02:16:38.638Z,14.70
2019-04-21T02:19:08.230Z,14.70
2019-04-21T02:21:36.948Z,14.70
2019-04-21T02:24:20.705Z,14.60
2019-04-21T02:26:45.672Z,14.60
2019-04-21T02:29:24.629Z,14.60
2019-04-21T02:32:01.747Z,14.50
2019-04-21T02:34:32.310Z,14.50
2019-04-21T02:37:17.661Z,14.50
2019-04-21T02:39:43.628Z,14.50
2019-04-21T02:47:21.201Z,14.40
2019-04-21T02:49:56.051Z,14.50
2019-04-21T02:52:32.011Z,14.50
2019-04-21T02:54:53.982Z,14.40
2019-04-21T02:57:22.909Z,14.40
2019-04-21T03:03:13.331Z,14.40
2019-04-21T03:05:47.118Z,14.40
2019-04-21T03:08:15.463Z,14.30
2019-04-21T03:13:21.775Z,14.30
2019-04-21T03:18:24.412Z,14.20
2019-04-21T03:21:04.793Z,14.20
2019-04-21T03:23:28.048Z,14.10
2019-04-21T03:26:00.773Z,14.10
2019-04-21T03:28:32.444Z,14.10
2019-04-21T03:36:33.364Z,13.80
2019-04-21T03:38:57.231Z,13.70
2019-04-21T03:41:10.536Z,13.60
2019-04-21T03:43:46.438Z,13.60
2019-04-21T03:46:18.447Z,13.60
2019-04-21T03:48:51.692Z,13.70
2019-04-21T03:51:23.109Z,13.60
2019-04-21T03:53:46.472Z,13.60
2019-04-21T03:56:27.061Z,13.50
2019-04-21T04:01:22.000Z,13.50
2019-04-21T04:04:20.186Z,13.40
2019-04-21T04:07:04.456Z,13.30
2019-04-21T04:09:44.593Z,13.20
2019-04-21T04:12:13.170Z,13.10
2019-04-21T04:17:17.044Z,12.90
2019-04-21T04:19:56.401Z,12.80
2019-04-21T04:29:59.314Z,12.50
2019-04-21T04:32:42.142Z,12.50
2019-04-21T04:37:40.570Z,12.40
2019-04-21T04:50:49.497Z,12.20
2019-04-21T04:53:21.842Z,12.20
2019-04-21T04:55:45.725Z,12.10
2019-04-21T04:58:22.161Z,12.10
2019-04-21T05:01:08.037Z,12.10
2019-04-21T05:03:39.877Z,12.10
2019-04-21T05:09:03.524Z,12.10
2019-04-21T05:11:39.599Z,12.10
2019-04-21T05:14:08.985Z,12.10
2019-04-21T05:19:10.563Z,12.10
2019-04-21T05:21:34.237Z,12.10
2019-04-21T05:23:55.871Z,12.10
2019-04-21T05:26:23.055Z,12.10
2019-04-21T05:28:55.400Z,12.20
2019-04-21T05:31:38.650Z,12.20
2019-04-21T05:34:22.065Z,12.30
2019-04-21T05:36:53.861Z,12.30
2019-04-21T05:39:23.141Z,12.40
2019-04-21T05:41:50.795Z,12.40
2019-04-21T05:44:44.477Z,12.50
2019-04-21T05:47:15.952Z,12.60
2019-04-21T05:49:43.853Z,12.60
2019-04-21T05:52:08.215Z,12.70
2019-04-21T05:54:49.636Z,12.80
2019-04-21T05:57:14.651Z,12.90
2019-04-21T05:59:51.595Z,13.00
2019-04-21T06:02:27.763Z,13.10
2019-04-21T06:05:09.904Z,13.20
2019-04-21T06:07:28.834Z,13.40
2019-04-21T06:10:00.014Z,13.50
2019-04-21T06:12:35.924Z,13.60
2019-04-21T06:15:02.592Z,13.70
2019-04-21T06:17:34.872Z,13.80
2019-04-21T06:20:05.691Z,13.90
2019-04-21T06:22:38.624Z,13.90
2019-04-21T06:27:46.931Z,14.10
2019-04-21T06:30:10.657Z,14.20
2019-04-21T06:35:48.584Z,14.50
2019-04-21T06:38:19.326Z,14.50
2019-04-21T06:40:42.496Z,14.60
2019-04-21T06:43:20.983Z,14.80
2019-04-21T06:45:51.109Z,14.90
2019-04-21T06:48:20.770Z,15.10
2019-04-21T06:50:52.943Z,15.30
2019-04-21T06:53:20.778Z,15.30
2019-04-21T06:55:52.048Z,15.40
2019-04-21T06:58:18.364Z,15.50
2019-04-21T07:00:56.318Z,15.70
2019-04-21T07:03:29.751Z,15.80
2019-04-21T07:06:03.500Z,15.90
2019-04-21T07:08:37.985Z,16.00
2019-04-21T07:11:04.070Z,16.10
2019-04-21T07:13:34.543Z,16.20
2019-04-21T07:16:15.663Z,16.30
2019-04-21T07:18:41.091Z,16.60
2019-04-21T07:21:15.831Z,16.70
2019-04-21T07:23:50.222Z,16.90
2019-04-21T07:26:20.724Z,17.00
2019-04-21T07:28:58.182Z,17.10
2019-04-21T07:31:20.803Z,17.10
2019-04-21T07:36:35.445Z,17.30
2019-04-21T07:38:57.335Z,17.30
2019-04-21T07:41:18.401Z,17.40
2019-04-21T07:43:57.226Z,17.50
2019-04-21T07:46:25.405Z,17.60
2019-04-21T07:49:12.793Z,17.70
2019-04-21T07:51:56.483Z,17.80
2019-04-21T07:54:33.587Z,17.90
2019-04-21T07:56:40.167Z,18.00
2019-04-21T07:59:39.626Z,18.10
2019-04-21T08:02:14.166Z,18.10
2019-04-21T08:07:11.743Z,18.20
2019-04-21T08:09:37.197Z,18.40
2019-04-21T08:12:04.154Z,18.50
2019-04-21T08:14:44.110Z,18.60
2019-04-21T08:17:09.813Z,18.70
2019-04-21T08:19:46.099Z,18.80
2019-04-21T08:22:20.211Z,18.90
2019-04-21T08:24:50.783Z,19.00
2019-04-21T08:27:18.921Z,19.10
2019-04-21T08:29:52.164Z,19.20
2019-04-21T08:32:26.544Z,19.30
2019-04-21T08:35:14.739Z,19.30
2019-04-21T08:37:27.580Z,19.30
2019-04-21T08:40:05.079Z,19.40
2019-04-21T08:42:33.178Z,19.50
2019-04-21T08:45:00.610Z,19.50
2019-04-21T08:47:36.455Z,19.60
2019-04-21T08:50:09.625Z,19.70
2019-04-21T08:52:42.711Z,19.80
2019-04-21T08:55:21.933Z,20.00
2019-04-21T08:58:12.200Z,20.10
2019-04-21T09:00:33.726Z,20.20
2019-04-21T09:03:07.589Z,20.40
2019-04-21T09:05:41.164Z,20.40
2019-04-21T09:08:15.268Z,20.60
2019-04-21T09:10:42.209Z,20.60
2019-04-21T09:13:10.289Z,20.80
2019-04-21T09:15:43.047Z,21.00
2019-04-21T09:18:17.533Z,21.10
2019-04-21T09:20:52.158Z,21.20
2019-04-21T09:23:24.215Z,21.30
2019-04-21T09:26:00.415Z,21.50
2019-04-21T09:28:21.190Z,21.50
2019-04-21T09:30:46.466Z,21.70
2019-04-21T09:33:11.717Z,21.80
2019-04-21T09:35:49.192Z,21.90
2019-04-21T09:38:26.233Z,22.00
2019-04-21T09:40:49.666Z,21.90
2019-04-21T09:43:29.746Z,22.10
2019-04-21T09:45:51.965Z,22.30
2019-04-21T09:48:25.920Z,22.40
2019-04-21T09:50:57.314Z,22.60
2019-04-21T09:53:32.801Z,22.60
2019-04-21T09:56:04.901Z,22.60
2019-04-21T09:58:38.681Z,22.60
2019-04-21T10:01:15.994Z,22.80
2019-04-21T10:03:46.111Z,23.00
2019-04-21T10:06:09.165Z,23.20
2019-04-21T10:08:40.830Z,23.20
2019-04-21T10:11:14.147Z,23.30
2019-04-21T10:13:46.258Z,23.50
2019-04-21T10:16:34.847Z,23.50
2019-04-21T10:19:05.197Z,23.60
2019-04-21T10:21:36.045Z,23.80
2019-04-21T10:24:06.496Z,23.90
2019-04-21T10:26:43.383Z,24.00
2019-04-21T10:29:21.770Z,24.00
2019-04-21T10:31:46.860Z,24.10
2019-04-21T10:34:19.124Z,24.10
2019-04-21T10:36:49.432Z,24.20
2019-04-21T10:39:19.986Z,24.40
2019-04-21T10:41:51.136Z,24.50
2019-04-21T10:44:21.427Z,24.80
2019-04-21T10:46:52.535Z,24.80
2019-04-21T10:49:24.483Z,25.10
2019-04-21T10:51:55.161Z,25.30
2019-04-21T10:54:26.197Z,25.50
2019-04-21T10:56:58.780Z,25.60
2019-04-21T10:59:29.091Z,25.60
2019-04-21T11:02:01.051Z,25.50
2019-04-21T11:04:36.755Z,25.50
2019-04-21T11:07:13.430Z,25.60
2019-04-21T11:09:39.948Z,25.70
2019-04-21T11:12:10.521Z,25.90
2019-04-21T11:14:41.157Z,26.10
2019-04-21T11:17:12.289Z,26.30
2019-04-21T11:19:43.118Z,26.50
2019-04-21T11:22:14.634Z,26.80
2019-04-21T11:24:45.052Z,27.00
2019-04-21T11:27:15.289Z,27.10
2019-04-21T11:29:45.567Z,27.20
2019-04-21T11:32:16.834Z,27.60
2019-04-21T11:34:47.257Z,27.60
2019-04-21T11:37:19.919Z,27.80
2019-04-21T11:39:57.333Z,28.10
2019-04-21T11:42:30.423Z,28.20
2019-04-21T11:45:00.757Z,28.50
2019-04-21T11:47:36.374Z,28.70
2019-04-21T11:50:07.501Z,29.20
2019-04-21T11:52:38.908Z,29.80
2019-04-21T11:55:09.444Z,30.40
2019-04-21T11:57:44.627Z,31.00
2019-04-21T12:00:13.531Z,31.50
2019-04-21T12:02:43.938Z,32.00
2019-04-21T12:05:15.137Z,32.00
2019-04-21T12:07:45.583Z,31.60
2019-04-21T12:10:16.004Z,31.00
2019-04-21T12:12:47.452Z,30.50
2019-04-21T12:15:18.845Z,30.30
2019-04-21T12:17:50.099Z,30.10
2019-04-21T12:20:20.917Z,29.90
2019-04-21T12:22:51.208Z,29.90
2019-04-21T12:25:23.453Z,30.70
2019-04-21T12:27:54.151Z,30.80
2019-04-21T12:30:24.644Z,31.00
2019-04-21T12:32:57.989Z,31.70
2019-04-21T12:35:28.099Z,31.90
2019-04-21T12:37:58.538Z,31.90
2019-04-21T12:40:28.811Z,31.20
2019-04-21T12:42:59.085Z,30.90
2019-04-21T12:45:29.502Z,30.50
2019-04-21T12:48:00.083Z,29.90
2019-04-21T12:50:32.055Z,29.80
2019-04-21T12:53:03.361Z,29.70
2019-04-21T12:55:37.369Z,29.30
2019-04-21T12:58:07.571Z,29.20
2019-04-21T13:00:38.874Z,28.90
2019-04-21T13:03:09.902Z,28.70
2019-04-21T13:05:40.239Z,28.60
2019-04-21T13:08:11.461Z,28.80
2019-04-21T13:10:42.344Z,28.90
2019-04-21T13:13:14.241Z,28.80
2019-04-21T13:15:45.376Z,28.80
2019-04-21T13:18:16.454Z,28.70
2019-04-21T13:20:46.876Z,28.60
2019-04-21T13:23:17.156Z,28.60
2019-04-21T13:25:47.844Z,28.60
2019-04-21T13:28:18.729Z,28.30
2019-04-21T13:30:50.518Z,28.40
2019-04-21T13:33:21.145Z,28.30
2019-04-21T13:35:53.020Z,28.60
2019-04-21T13:38:34.341Z,28.80
2019-04-21T13:41:22.632Z,28.90
2019-04-21T13:43:41.313Z,28.90
2019-04-21T13:46:12.134Z,28.70
2019-04-21T13:48:42.630Z,28.70
2019-04-21T13:51:13.404Z,28.70
2019-04-21T13:53:43.976Z,28.50
2019-04-21T13:56:14.421Z,28.50
2019-04-21T13:58:44.645Z,28.80
2019-04-21T14:01:16.028Z,28.90
2019-04-21T14:03:47.317Z,28.90
2019-04-21T14:06:18.441Z,28.80
2019-04-21T14:08:50.610Z,28.80
2019-04-21T14:11:20.776Z,28.80
2019-04-21T14:13:52.221Z,28.90
2019-04-21T14:16:22.700Z,28.80
2019-04-21T14:18:52.973Z,28.90
2019-04-21T14:21:23.537Z,28.90
2019-04-21T14:23:54.595Z,28.80
2019-04-21T14:26:26.851Z,28.80
2019-04-21T14:28:58.888Z,28.90
2019-04-21T14:31:30.485Z,29.00
2019-04-21T14:34:01.759Z,29.10
2019-04-21T14:36:32.729Z,29.20
2019-04-21T14:39:04.933Z,29.10
2019-04-21T14:41:35.838Z,29.20
2019-04-21T14:44:06.884Z,29.10
2019-04-21T14:46:39.545Z,29.00
2019-04-21T14:49:12.958Z,29.10
2019-04-21T14:51:50.965Z,29.20
2019-04-21T14:54:36.390Z,29.10
2019-04-21T14:57:07.286Z,28.90
2019-04-21T14:59:37.569Z,28.70
2019-04-21T15:02:07.908Z,28.80
2019-04-21T15:04:39.715Z,28.80
2019-04-21T15:07:10.037Z,28.70
2019-04-21T15:09:42.537Z,29.00
2019-04-21T15:12:12.299Z,29.00
2019-04-21T15:14:42.570Z,29.20
2019-04-21T15:17:15.925Z,29.20
2019-04-21T15:19:53.684Z,29.20
2019-04-21T15:22:16.817Z,29.20
2019-04-21T15:24:48.111Z,29.10
2019-04-21T15:27:19.026Z,29.20
2019-04-21T15:29:50.979Z,29.10
2019-04-21T15:32:22.288Z,29.10
2019-04-21T15:34:52.533Z,29.20
2019-04-21T15:37:24.136Z,29.30
2019-04-21T15:39:54.440Z,29.30
2019-04-21T15:42:24.734Z,29.20
2019-04-21T15:44:55.008Z,29.10
2019-04-21T15:47:26.234Z,29.10
2019-04-21T15:50:04.728Z,29.10
2019-04-21T15:52:29.942Z,29.10
2019-04-21T15:55:03.291Z,29.00
2019-04-21T15:57:42.542Z,28.90
2019-04-21T16:00:16.389Z,28.90
2019-04-21T16:02:48.563Z,29.10
2019-04-21T16:05:19.898Z,29.30
2019-04-21T16:07:50.176Z,29.50
2019-04-21T16:10:34.326Z,29.50
2019-04-21T16:12:53.961Z,29.50
2019-04-21T16:15:24.306Z,29.40
2019-04-21T16:17:55.240Z,29.20
2019-04-21T16:20:25.986Z,29.00
2019-04-21T16:22:56.833Z,28.90
2019-04-21T16:25:28.661Z,28.80
2019-04-21T16:27:59.481Z,28.60
2019-04-21T16:30:30.841Z,28.50
2019-04-21T16:33:01.936Z,28.30
2019-04-21T16:35:33.716Z,28.20
2019-04-21T16:38:05.934Z,28.20
2019-04-21T16:40:48.201Z,28.30
2019-04-21T16:43:08.444Z,28.20
2019-04-21T16:45:39.095Z,28.20
2019-04-21T16:48:09.574Z,28.20
2019-04-21T16:50:39.863Z,28.20
2019-04-21T16:53:20.230Z,28.10
2019-04-21T16:55:55.119Z,28.10
2019-04-21T16:58:29.002Z,28.00
2019-04-21T17:01:05.096Z,28.00
2019-04-21T17:03:32.690Z,28.00
2019-04-21T17:06:04.700Z,27.80
2019-04-21T17:08:35.030Z,27.70
2019-04-21T17:11:12.891Z,27.70
2019-04-21T17:13:38.314Z,27.50
2019-04-21T17:16:38.913Z,27.30
2019-04-21T17:18:54.981Z,27.20
2019-04-21T17:21:13.288Z,27.10
2019-04-21T17:23:46.301Z,27.00
2019-04-21T17:26:17.162Z,27.00
2019-04-21T17:28:48.816Z,27.00
2019-04-21T17:31:20.282Z,27.00
2019-04-21T17:33:57.767Z,26.90
2019-04-21T17:36:23.196Z,26.70
2019-04-21T17:38:54.296Z,26.70
2019-04-21T17:41:33.378Z,26.70
2019-04-21T17:43:58.317Z,26.60
2019-04-21T17:46:38.910Z,26.40
2019-04-21T17:49:01.140Z,26.40
2019-04-21T17:51:33.211Z,26.20
2019-04-21T17:54:13.662Z,26.10
2019-04-21T17:57:04.377Z,26.00
2019-04-21T17:59:43.157Z,25.90
2019-04-21T18:02:02.251Z,25.80
2019-04-21T18:04:37.546Z,25.70
2019-04-21T18:07:27.651Z,25.50
2019-04-21T18:10:04.748Z,25.50
2019-04-21T18:12:33.401Z,25.30
2019-04-21T18:14:59.858Z,25.30
2019-04-21T18:17:22.739Z,25.30
2019-04-21T18:19:55.215Z,25.20
2019-04-21T18:22:32.128Z,25.10
2019-04-21T18:25:08.764Z,25.00
2019-04-21T18:27:34.442Z,24.90
2019-04-21T18:30:31.833Z,24.80
2019-04-21T18:33:04.708Z,24.70
2019-04-21T18:35:55.062Z,24.50
2019-04-21T18:38:45.138Z,24.40
2019-04-21T18:41:03.873Z,24.20
2019-04-21T18:44:09.004Z,24.00
2019-04-21T18:46:33.094Z,23.90
2019-04-21T18:49:00.758Z,23.70
2019-04-21T18:51:42.892Z,23.60
2019-04-21T18:54:27.182Z,23.40
2019-04-21T18:56:50.996Z,23.30
2019-04-21T18:59:08.859Z,23.20
2019-04-21T19:01:40.748Z,23.10
2019-04-21T19:04:19.673Z,23.00
2019-04-21T19:06:59.449Z,22.90
2019-04-21T19:09:47.606Z,22.80
2019-04-21T19:12:10.083Z,22.70
2019-04-21T19:17:38.198Z,22.30
2019-04-21T19:22:17.168Z,22.20
2019-04-21T19:24:48.442Z,22.10
2019-04-21T19:27:22.771Z,22.10
2019-04-21T19:32:23.908Z,21.90
2019-04-21T19:34:41.555Z,21.80
2019-04-21T19:37:18.266Z,21.80
2019-04-21T19:40:00.501Z,21.70
2019-04-21T19:42:25.497Z,21.70
2019-04-21T19:45:06.032Z,21.70
2019-04-21T19:47:38.912Z,21.60
2019-04-21T19:50:10.734Z,21.50
2019-04-21T19:52:36.634Z,21.30
2019-04-21T19:54:58.606Z,21.00
2019-04-21T19:57:31.205Z,20.80
2019-04-21T20:00:04.328Z,20.50
2019-04-21T20:02:34.571Z,20.30
2019-04-21T20:05:13.015Z,20.10
2019-04-21T20:08:02.703Z,19.80
2019-04-21T20:10:35.470Z,19.60
2019-04-21T20:13:06.424Z,19.40
2019-04-21T20:15:42.305Z,19.20
2019-04-21T20:18:02.032Z,19.20
2019-04-21T20:20:21.411Z,19.00
2019-04-21T20:22:53.723Z,18.90
2019-04-21T20:25:25.632Z,18.80
2019-04-21T20:28:04.917Z,18.60
2019-04-21T20:30:42.678Z,18.60
2019-04-21T20:38:15.689Z,18.20
2019-04-21T20:40:45.389Z,18.00
2019-04-21T20:43:28.507Z,17.90
2019-04-21T20:48:25.261Z,17.70
2019-04-21T20:51:06.413Z,17.60
2019-04-21T20:53:32.721Z,17.50
2019-04-21T20:56:00.600Z,17.40
2019-04-21T20:58:37.287Z,17.30
2019-04-21T21:01:25.739Z,17.20
2019-04-21T21:03:39.346Z,17.10
2019-04-21T21:06:16.152Z,17.00
2019-04-21T21:08:44.887Z,16.90
2019-04-21T21:11:21.518Z,16.80
2019-04-21T21:13:52.159Z,16.80
2019-04-21T21:19:08.163Z,16.60
2019-04-21T21:21:24.308Z,16.60
2019-04-21T21:24:00.618Z,16.50
2019-04-21T21:26:31.287Z,16.40
2019-04-21T21:28:56.341Z,16.40
2019-04-21T21:31:38.727Z,16.30
2019-04-21T21:34:10.048Z,16.30
2019-04-21T21:36:41.535Z,16.30
2019-04-21T21:39:12.830Z,16.30
2019-04-21T21:41:31.776Z,16.30
2019-04-21T21:44:05.253Z,16.30
2019-04-21T21:46:45.618Z,16.30
2019-04-21T21:49:18.720Z,16.20
2019-04-21T21:51:44.995Z,16.20
2019-04-21T21:54:07.614Z,16.20
2019-04-21T21:56:38.531Z,16.20
2019-04-21T21:59:16.047Z,16.20
2019-04-21T22:01:47.024Z,16.20
2019-04-21T22:04:20.954Z,16.20
2019-04-21T22:06:55.314Z,16.20
2019-04-21T22:09:18.582Z,16.20
2019-04-21T22:11:53.576Z,16.20
2019-04-21T22:14:25.877Z,16.20
2019-04-21T22:17:11.086Z,16.20
2019-04-21T22:19:48.892Z,16.10
2019-04-21T22:22:16.814Z,16.00
2019-04-21T22:24:46.915Z,16.00
2019-04-21T22:27:01.330Z,16.00
2019-04-21T22:29:38.146Z,15.90
2019-04-21T22:32:11.356Z,15.90
2019-04-21T22:34:44.034Z,15.90
2019-04-21T22:37:28.811Z,15.80
2019-04-21T22:39:57.005Z,15.80
2019-04-21T22:42:20.952Z,15.80
2019-04-21T22:44:44.000Z,15.70
2019-04-21T22:47:22.400Z,15.70
2019-04-21T22:49:46.568Z,15.70
2019-04-21T22:52:21.045Z,15.50
2019-04-21T22:54:50.673Z,15.50
2019-04-21T22:57:24.894Z,15.40
2019-04-21T22:59:59.920Z,15.40
2019-04-21T23:02:29.965Z,15.40
2019-04-21T23:05:00.115Z,15.40
2019-04-21T23:07:32.850Z,15.30
2019-04-21T23:10:03.484Z,15.30
2019-04-21T23:12:38.707Z,15.30
2019-04-21T23:15:13.923Z,15.40
2019-04-21T23:18:02.155Z,15.30
2019-04-21T23:20:36.819Z,15.40
2019-04-21T23:23:11.800Z,15.50
2019-04-21T23:25:39.138Z,15.50
2019-04-21T23:28:09.461Z,15.40
2019-04-21T23:30:45.819Z,15.40
2019-04-21T23:33:03.496Z,15.40
2019-04-21T23:35:34.243Z,15.40
2019-04-21T23:38:04.628Z,15.40
2019-04-21T23:40:31.461Z,15.40
2019-04-21T23:43:09.641Z,15.40
2019-04-21T23:45:38.188Z,15.40
2019-04-21T23:48:18.441Z,15.40
2019-04-21T23:50:49.455Z,15.40
2019-04-21T23:53:11.228Z,15.40
2019-04-21T23:55:41.704Z,15.40
2019-04-21T23:58:18.651Z,15.40
